createdAt,value
2019-05-23T00:00:41.508Z,4.10
2019-05-23T00:03:11.763Z,4.53
2019-05-23T00:05:45.322Z,4.80
2019-05-23T00:08:18.677Z,3.93
2019-05-23T00:11:22.545Z,4.10
2019-05-23T00:13:58.041Z,4.80
2019-05-23T00:16:28.649Z,5.53
2019-05-23T00:18:58.984Z,5.07
2019-05-23T00:21:28.784Z,5.53
2019-05-23T00:24:00.509Z,5.43
2019-05-23T00:26:31.488Z,5.03
2019-05-23T00:29:10.040Z,4.53
2019-05-23T00:31:39.805Z,3.93
2019-05-23T00:34:11.624Z,3.90
2019-05-23T00:36:41.976Z,4.00
2019-05-23T00:39:13.847Z,3.70
2019-05-23T00:41:44.794Z,3.90
2019-05-23T00:44:14.410Z,3.47
2019-05-23T00:46:44.879Z,2.80
2019-05-23T00:49:15.996Z,2.70
2019-05-23T00:51:46.407Z,2.90
2019-05-23T00:54:16.900Z,2.97
2019-05-23T00:56:46.146Z,3.50
2019-05-23T00:59:26.562Z,3.07
2019-05-23T01:01:49.215Z,2.90
2019-05-23T01:04:19.078Z,2.50
2019-05-23T01:06:49.738Z,2.90
2019-05-23T01:09:21.443Z,2.90
2019-05-23T01:11:50.709Z,2.53
2019-05-23T01:14:20.335Z,2.70
2019-05-23T01:16:49.541Z,2.60
2019-05-23T01:19:19.227Z,2.30
2019-05-23T01:22:03.486Z,2.40
2019-05-23T01:24:50.579Z,2.00
2019-05-23T01:27:19.729Z,2.73
2019-05-23T01:29:51.414Z,2.50
2019-05-23T01:32:26.374Z,3.17
2019-05-23T01:34:56.745Z,2.57
2019-05-23T01:37:26.785Z,2.47
2019-05-23T01:39:56.642Z,2.40
2019-05-23T01:42:26.834Z,2.20
2019-05-23T01:44:58.117Z,2.30
2019-05-23T01:47:29.362Z,1.70
2019-05-23T01:49:58.966Z,1.90
2019-05-23T01:52:30.002Z,1.77
2019-05-23T01:55:00.621Z,1.70
2019-05-23T01:57:30.556Z,1.77
2019-05-23T02:00:10.181Z,1.80
2019-05-23T02:02:32.654Z,1.77
2019-05-23T02:05:02.606Z,1.60
2019-05-23T02:07:32.074Z,2.00
2019-05-23T02:10:02.745Z,1.83
2019-05-23T02:12:33.934Z,1.90
2019-05-23T02:15:03.804Z,2.00
2019-05-23T02:17:33.964Z,1.90
2019-05-23T02:20:03.479Z,2.30
2019-05-23T02:22:33.447Z,2.13
2019-05-23T02:25:04.660Z,2.13
2019-05-23T02:27:34.033Z,2.10
2019-05-23T02:30:04.373Z,2.00
2019-05-23T02:32:34.381Z,2.13
2019-05-23T02:35:04.655Z,2.90
2019-05-23T02:37:59.645Z,2.87
2019-05-23T02:40:36.997Z,3.10
2019-05-23T02:43:06.916Z,3.30
2019-05-23T02:45:39.789Z,3.67
2019-05-23T02:48:14.024Z,3.10
2019-05-23T02:50:50.369Z,3.03
2019-05-23T02:53:19.896Z,3.40
2019-05-23T02:55:49.465Z,3.40
2019-05-23T02:58:52.397Z,2.80
2019-05-23T03:01:44.579Z,2.97
2019-05-23T03:04:18.081Z,3.00
2019-05-23T03:06:48.284Z,2.60
2019-05-23T03:09:19.399Z,3.07
2019-05-23T03:11:50.061Z,3.00
2019-05-23T03:14:19.850Z,2.80
2019-05-23T03:16:51.914Z,2.93
2019-05-23T03:19:37.033Z,2.20
2019-05-23T03:22:28.567Z,2.50
2019-05-23T03:25:00.737Z,2.50
2019-05-23T03:27:30.498Z,3.00
2019-05-23T03:30:01.000Z,3.13
2019-05-23T03:33:04.335Z,2.80
2019-05-23T03:35:41.037Z,2.57
2019-05-23T03:38:11.268Z,2.90
2019-05-23T03:40:41.270Z,2.80
2019-05-23T03:43:11.838Z,3.27
2019-05-23T03:45:45.552Z,3.03
2019-05-23T03:48:15.935Z,3.13
2019-05-23T03:50:47.167Z,3.30
2019-05-23T03:53:17.438Z,2.57
2019-05-23T03:55:48.770Z,2.80
2019-05-23T03:58:18.843Z,2.70
2019-05-23T04:00:53.008Z,2.80
2019-05-23T04:03:24.400Z,2.73
2019-05-23T04:05:54.851Z,2.87
2019-05-23T04:08:24.592Z,2.50
2019-05-23T04:10:53.877Z,2.50
2019-05-23T04:13:24.189Z,2.70
2019-05-23T04:15:53.530Z,3.43
2019-05-23T04:18:24.109Z,3.17
2019-05-23T04:20:54.273Z,4.60
2019-05-23T04:23:24.650Z,2.87
2019-05-23T04:25:54.531Z,3.10
2019-05-23T04:28:24.037Z,2.90
2019-05-23T04:30:54.084Z,2.80
2019-05-23T04:33:23.675Z,2.80
2019-05-23T04:35:53.713Z,2.57
2019-05-23T04:38:23.304Z,2.90
2019-05-23T04:40:52.557Z,2.40
2019-05-23T04:43:22.190Z,2.10
2019-05-23T04:45:52.510Z,2.47
2019-05-23T04:48:22.044Z,2.60
2019-05-23T04:50:52.666Z,2.50
2019-05-23T04:53:22.592Z,2.50
2019-05-23T04:55:53.379Z,2.60
2019-05-23T04:58:23.068Z,3.00
2019-05-23T05:00:52.676Z,3.47
2019-05-23T05:03:22.272Z,3.67
2019-05-23T05:05:51.996Z,3.20
2019-05-23T05:08:21.732Z,3.03
2019-05-23T05:10:51.950Z,3.57
2019-05-23T05:13:21.721Z,3.30
2019-05-23T05:15:51.774Z,3.13
2019-05-23T05:18:22.081Z,2.80
2019-05-23T05:20:52.420Z,2.67
2019-05-23T05:23:22.968Z,2.97
2019-05-23T05:25:52.667Z,3.40
2019-05-23T05:28:22.365Z,3.47
2019-05-23T05:30:52.997Z,3.30
2019-05-23T05:33:23.593Z,3.40
2019-05-23T05:35:53.729Z,3.87
2019-05-23T05:38:24.091Z,4.07
2019-05-23T05:40:53.477Z,4.10
2019-05-23T05:43:24.214Z,3.63
2019-05-23T05:45:53.857Z,4.60
2019-05-23T05:48:24.121Z,4.47
2019-05-23T05:50:53.931Z,3.90
2019-05-23T05:53:23.364Z,4.07
2019-05-23T05:55:53.274Z,3.37
2019-05-23T05:58:23.606Z,2.77
2019-05-23T06:01:00.853Z,2.90
2019-05-23T06:03:30.198Z,3.90
2019-05-23T06:06:27.809Z,3.87
2019-05-23T06:08:59.609Z,3.40
2019-05-23T06:11:29.731Z,3.17
2019-05-23T06:13:59.702Z,3.03
2019-05-23T06:16:29.536Z,4.23
2019-05-23T06:18:58.942Z,4.10
2019-05-23T06:21:30.922Z,3.90
2019-05-23T06:24:01.128Z,4.20
2019-05-23T06:26:31.467Z,4.07
2019-05-23T06:29:01.577Z,3.57
2019-05-23T06:31:32.002Z,3.77
2019-05-23T06:34:02.456Z,3.50
2019-05-23T06:36:33.428Z,3.67
2019-05-23T06:39:04.576Z,3.90
2019-05-23T06:41:34.902Z,4.10
2019-05-23T06:44:05.404Z,4.07
2019-05-23T06:46:35.290Z,4.40
2019-05-23T06:49:04.909Z,3.10
2019-05-23T06:51:34.517Z,3.13
2019-05-23T06:54:04.948Z,3.00
2019-05-23T06:56:34.943Z,2.60
2019-05-23T06:59:04.871Z,3.13
2019-05-23T07:01:35.488Z,3.10
2019-05-23T07:04:05.299Z,3.13
2019-05-23T07:06:35.688Z,2.90
2019-05-23T07:09:11.029Z,3.07
2019-05-23T07:11:40.385Z,3.07
2019-05-23T07:14:10.112Z,3.40
2019-05-23T07:16:39.891Z,3.80
2019-05-23T07:19:09.966Z,4.37
2019-05-23T07:21:40.044Z,3.50
2019-05-23T07:24:10.144Z,3.63
2019-05-23T07:26:39.420Z,4.03
2019-05-23T07:29:08.764Z,4.00
2019-05-23T07:31:38.627Z,4.80
2019-05-23T07:34:08.357Z,4.80
2019-05-23T07:36:38.354Z,4.10
2019-05-23T07:39:11.505Z,4.70
2019-05-23T07:41:40.942Z,3.77
2019-05-23T07:44:10.542Z,3.60
2019-05-23T07:46:40.493Z,4.67
2019-05-23T07:49:10.917Z,3.83
2019-05-23T07:51:40.939Z,4.23
2019-05-23T07:54:21.633Z,5.03
2019-05-23T07:56:51.464Z,4.70
2019-05-23T07:59:21.735Z,4.33
2019-05-23T08:01:56.783Z,3.67
2019-05-23T08:04:26.820Z,5.10
2019-05-23T08:06:57.295Z,4.93
2019-05-23T08:09:27.072Z,5.10
2019-05-23T08:11:56.899Z,3.83
2019-05-23T08:14:27.144Z,4.10
2019-05-23T08:16:56.565Z,4.53
2019-05-23T08:19:26.227Z,4.67
2019-05-23T08:21:55.535Z,5.03
2019-05-23T08:24:24.876Z,4.00
2019-05-23T08:26:55.713Z,4.40
2019-05-23T08:29:26.853Z,4.63
2019-05-23T08:31:56.638Z,5.10
2019-05-23T08:34:40.800Z,4.60
2019-05-23T08:36:57.956Z,4.50
2019-05-23T08:39:28.691Z,5.23
2019-05-23T08:41:58.049Z,4.43
2019-05-23T08:44:27.633Z,4.13
2019-05-23T08:46:57.443Z,4.40
2019-05-23T08:49:27.694Z,4.70
2019-05-23T08:51:57.643Z,4.00
2019-05-23T08:54:26.837Z,3.97
2019-05-23T08:56:56.474Z,4.50
2019-05-23T08:59:26.827Z,4.90
2019-05-23T09:01:56.337Z,4.77
2019-05-23T09:04:26.316Z,5.33
2019-05-23T09:06:57.174Z,4.57
2019-05-23T09:09:30.317Z,4.97
2019-05-23T09:11:58.976Z,5.40
2019-05-23T09:14:29.071Z,5.40
2019-05-23T09:16:58.952Z,5.27
2019-05-23T09:19:28.276Z,6.57
2019-05-23T09:21:58.293Z,11.13
2019-05-23T09:24:28.670Z,5.93
2019-05-23T09:26:57.957Z,6.40
2019-05-23T09:29:27.624Z,6.33
2019-05-23T09:31:58.241Z,5.60
2019-05-23T09:34:27.727Z,6.37
2019-05-23T09:37:00.210Z,6.37
2019-05-23T09:39:29.422Z,7.10
2019-05-23T09:41:59.029Z,5.80
2019-05-23T09:44:28.952Z,6.80
2019-05-23T09:46:58.532Z,6.20
2019-05-23T09:49:28.613Z,7.17
2019-05-23T09:52:01.241Z,7.23
2019-05-23T09:54:30.055Z,6.10
2019-05-23T09:56:59.948Z,7.40
2019-05-23T09:59:30.391Z,6.20
2019-05-23T10:02:01.549Z,6.20
2019-05-23T10:04:30.793Z,7.33
2019-05-23T10:07:00.600Z,7.93
2019-05-23T10:09:30.268Z,7.53
2019-05-23T10:12:00.277Z,7.87
2019-05-23T10:14:32.969Z,8.17
2019-05-23T10:17:03.313Z,7.83
2019-05-23T10:19:32.971Z,8.03
2019-05-23T10:22:02.915Z,8.87
2019-05-23T10:24:32.165Z,9.07
2019-05-23T10:27:02.250Z,7.70
2019-05-23T10:29:31.869Z,9.63
2019-05-23T10:32:02.286Z,9.90
2019-05-23T10:34:31.629Z,9.67
2019-05-23T10:37:01.787Z,9.27
2019-05-23T10:39:32.024Z,8.77
2019-05-23T10:42:02.371Z,8.07
2019-05-23T10:44:31.881Z,8.17
2019-05-23T10:47:01.370Z,8.63
2019-05-23T10:49:31.078Z,8.20
2019-05-23T10:52:01.111Z,8.07
2019-05-23T10:54:30.389Z,7.70
2019-05-23T10:57:00.335Z,7.93
2019-05-23T10:59:30.306Z,8.23
2019-05-23T11:01:59.970Z,8.27
2019-05-23T11:04:29.888Z,8.07
2019-05-23T11:06:59.985Z,8.73
2019-05-23T11:09:37.745Z,9.43
2019-05-23T11:12:01.412Z,9.13
2019-05-23T11:14:31.404Z,10.10
2019-05-23T11:17:01.417Z,10.07
2019-05-23T11:19:31.174Z,9.90
2019-05-23T11:22:00.761Z,9.20
2019-05-23T11:24:31.071Z,9.80
2019-05-23T11:27:00.719Z,10.17
2019-05-23T11:29:30.297Z,11.80
2019-05-23T11:32:01.028Z,10.53
2019-05-23T11:34:30.842Z,9.00
2019-05-23T11:37:00.424Z,9.57
2019-05-23T11:39:30.190Z,9.73
2019-05-23T11:41:59.856Z,12.57
2019-05-23T11:44:30.278Z,12.27
2019-05-23T11:47:01.375Z,12.07
2019-05-23T11:49:31.780Z,10.00
2019-05-23T11:52:01.338Z,10.37
2019-05-23T11:54:31.227Z,10.20
2019-05-23T11:57:01.828Z,8.60
2019-05-23T11:59:31.775Z,8.80
2019-05-23T12:02:18.951Z,9.73
2019-05-23T12:04:48.513Z,9.57
2019-05-23T12:07:22.886Z,11.17
2019-05-23T12:09:52.149Z,10.90
2019-05-23T12:12:21.784Z,10.13
2019-05-23T12:14:52.038Z,10.20
2019-05-23T12:17:22.824Z,9.90
2019-05-23T12:19:52.535Z,10.60
2019-05-23T12:22:23.391Z,10.47
2019-05-23T12:24:52.771Z,11.07
2019-05-23T12:27:22.339Z,12.33
2019-05-23T12:29:52.069Z,11.20
2019-05-23T12:32:21.466Z,10.67
2019-05-23T12:35:08.504Z,10.63
2019-05-23T12:37:23.076Z,11.10
2019-05-23T12:39:54.219Z,9.97
2019-05-23T12:42:24.318Z,10.43
2019-05-23T12:44:54.166Z,10.83
2019-05-23T12:47:35.328Z,9.97
2019-05-23T12:50:08.526Z,11.10
2019-05-23T12:52:38.671Z,9.37
2019-05-23T12:55:07.904Z,10.43
2019-05-23T12:57:37.389Z,11.17
2019-05-23T13:00:12.766Z,11.43
2019-05-23T13:02:42.910Z,10.47
2019-05-23T13:05:13.383Z,10.60
2019-05-23T13:07:43.892Z,10.47
2019-05-23T13:10:14.834Z,12.43
2019-05-23T13:12:44.615Z,11.20
2019-05-23T13:15:14.980Z,11.50
2019-05-23T13:17:45.084Z,10.27
2019-05-23T13:20:14.781Z,10.60
2019-05-23T13:22:44.514Z,9.60
2019-05-23T13:25:14.568Z,10.00
2019-05-23T13:27:43.991Z,10.40
2019-05-23T13:30:14.182Z,10.70
2019-05-23T13:32:44.096Z,10.07
2019-05-23T13:35:13.922Z,9.73
2019-05-23T13:37:53.545Z,10.00
2019-05-23T13:40:15.539Z,10.17
2019-05-23T13:42:46.209Z,9.47
2019-05-23T13:45:15.899Z,9.47
2019-05-23T13:47:46.444Z,9.43
2019-05-23T13:50:16.325Z,9.80
2019-05-23T13:52:45.968Z,9.30
2019-05-23T13:55:15.674Z,9.30
2019-05-23T13:57:45.026Z,9.60
2019-05-23T14:00:16.532Z,8.87
2019-05-23T14:02:46.964Z,9.30
2019-05-23T14:05:19.213Z,10.93
2019-05-23T14:07:48.198Z,10.83
2019-05-23T14:10:18.372Z,12.40
2019-05-23T14:12:48.883Z,13.00
2019-05-23T14:15:21.706Z,13.87
2019-05-23T14:17:51.613Z,13.33
2019-05-23T14:20:22.575Z,13.67
2019-05-23T14:22:57.092Z,15.23
2019-05-23T14:25:27.428Z,17.80
2019-05-23T14:28:06.258Z,14.40
2019-05-23T14:31:01.228Z,13.20
2019-05-23T14:33:48.191Z,14.60
2019-05-23T14:36:24.763Z,16.73
2019-05-23T14:38:55.773Z,16.53
2019-05-23T14:41:43.746Z,17.73
2019-05-23T14:43:58.659Z,17.03
2019-05-23T14:46:32.411Z,15.87
2019-05-23T14:49:07.538Z,14.93
2019-05-23T14:51:53.036Z,13.83
2019-05-23T14:54:43.782Z,13.03
2019-05-23T14:57:13.695Z,14.73
2019-05-23T14:59:43.551Z,14.13
2019-05-23T15:02:19.775Z,15.07
2019-05-23T15:04:49.861Z,16.37
2019-05-23T15:07:19.421Z,15.43
2019-05-23T15:09:48.742Z,15.50
2019-05-23T15:12:18.946Z,15.67
2019-05-23T15:14:48.907Z,14.70
2019-05-23T15:17:18.620Z,14.17
2019-05-23T15:19:48.341Z,14.63
2019-05-23T15:22:17.816Z,14.93
2019-05-23T15:24:47.503Z,14.40
2019-05-23T15:27:18.050Z,15.60
2019-05-23T15:29:47.366Z,15.30
2019-05-23T15:32:17.000Z,16.03
2019-05-23T15:34:46.885Z,15.07
2019-05-23T15:37:17.663Z,13.90
2019-05-23T15:39:46.969Z,13.93
2019-05-23T15:42:16.280Z,12.37
2019-05-23T15:44:46.408Z,13.27
2019-05-23T15:47:17.635Z,13.03
2019-05-23T15:49:48.585Z,12.67
2019-05-23T15:52:39.114Z,12.83
2019-05-23T15:55:23.741Z,14.20
2019-05-23T15:57:59.439Z,15.17
2019-05-23T16:00:47.202Z,16.40
2019-05-23T16:03:31.710Z,18.37
2019-05-23T16:06:01.575Z,16.67
2019-05-23T16:08:31.440Z,17.47
2019-05-23T16:11:01.515Z,19.23
2019-05-23T16:13:31.437Z,20.63
2019-05-23T16:16:01.533Z,19.77
2019-05-23T16:18:32.322Z,18.90
2019-05-23T16:21:02.040Z,21.27
2019-05-23T16:23:32.406Z,21.00
2019-05-23T16:26:02.059Z,23.43
2019-05-23T16:28:32.144Z,20.47
2019-05-23T16:31:02.193Z,25.77
2019-05-23T16:33:32.575Z,21.30
2019-05-23T16:36:02.242Z,19.40
2019-05-23T16:38:31.565Z,19.43
2019-05-23T16:41:01.245Z,19.53
2019-05-23T16:43:30.596Z,21.03
2019-05-23T16:46:00.802Z,21.67
2019-05-23T16:48:30.774Z,23.53
2019-05-23T16:51:00.092Z,23.90
2019-05-23T16:53:29.829Z,24.47
2019-05-23T16:56:06.225Z,23.77
2019-05-23T16:58:53.847Z,22.80
2019-05-23T17:01:56.020Z,21.47
2019-05-23T17:04:24.892Z,20.73
2019-05-23T17:07:02.616Z,22.53
2019-05-23T17:09:44.583Z,22.70
2019-05-23T17:12:26.660Z,21.43
2019-05-23T17:15:04.586Z,22.37
2019-05-23T17:18:00.701Z,22.10
2019-05-23T17:20:28.585Z,25.60
2019-05-23T17:23:15.735Z,22.37
2019-05-23T17:25:57.046Z,25.20
2019-05-23T17:28:34.797Z,25.93
2019-05-23T17:31:06.680Z,27.17
2019-05-23T17:33:37.133Z,26.40
2019-05-23T17:36:07.487Z,29.53
2019-05-23T17:38:37.328Z,31.87
2019-05-23T17:41:06.561Z,31.63
2019-05-23T17:43:36.900Z,34.63
2019-05-23T17:46:06.730Z,36.77
2019-05-23T17:48:36.683Z,30.03
2019-05-23T17:51:06.371Z,29.93
2019-05-23T17:53:36.213Z,27.13
2019-05-23T17:56:05.961Z,31.33
2019-05-23T17:58:35.686Z,26.93
2019-05-23T18:01:05.547Z,27.10
2019-05-23T18:03:35.155Z,27.20
2019-05-23T18:06:05.432Z,26.63
2019-05-23T18:08:35.630Z,26.20
2019-05-23T18:11:06.685Z,26.50
2019-05-23T18:13:37.063Z,28.10
2019-05-23T18:16:07.740Z,26.43
2019-05-23T18:18:37.792Z,24.33
2019-05-23T18:21:07.861Z,26.50
2019-05-23T18:23:37.753Z,23.97
2019-05-23T18:26:07.773Z,22.73
2019-05-23T18:28:37.658Z,21.30
2019-05-23T18:31:18.747Z,22.20
2019-05-23T18:33:49.366Z,21.33
2019-05-23T18:36:19.761Z,20.33
2019-05-23T18:38:49.841Z,18.77
2019-05-23T18:41:19.992Z,20.37
2019-05-23T18:43:50.376Z,20.47
2019-05-23T18:46:29.192Z,18.73
2019-05-23T18:49:00.860Z,17.20
2019-05-23T18:51:30.876Z,16.13
2019-05-23T18:54:00.860Z,16.80
2019-05-23T18:56:31.015Z,16.83
2019-05-23T18:59:01.347Z,17.13
2019-05-23T19:01:31.094Z,19.30
2019-05-23T19:04:01.157Z,16.80
2019-05-23T19:06:31.256Z,15.87
2019-05-23T19:09:00.755Z,16.90
2019-05-23T19:11:30.609Z,16.80
2019-05-23T19:14:00.713Z,16.17
2019-05-23T19:16:30.421Z,18.60
2019-05-23T19:19:01.225Z,16.60
2019-05-23T19:21:33.248Z,18.90
2019-05-23T19:24:03.531Z,19.27
2019-05-23T19:26:34.490Z,21.00
2019-05-23T19:29:04.826Z,22.13
2019-05-23T19:31:34.475Z,21.70
2019-05-23T19:34:04.745Z,21.70
2019-05-23T19:36:34.772Z,26.67
2019-05-23T19:39:06.311Z,25.83
2019-05-23T19:41:38.158Z,28.00
2019-05-23T19:44:07.783Z,26.80
2019-05-23T19:46:37.470Z,28.50
2019-05-23T19:49:06.976Z,27.60
2019-05-23T19:51:36.669Z,26.97
2019-05-23T19:54:06.980Z,29.13
2019-05-23T19:56:37.599Z,28.77
2019-05-23T19:59:07.076Z,27.73
2019-05-23T20:01:47.064Z,26.83
2019-05-23T20:04:16.675Z,28.13
2019-05-23T20:06:46.268Z,27.57
2019-05-23T20:09:18.449Z,26.43
2019-05-23T20:11:54.608Z,26.40
2019-05-23T20:14:20.133Z,26.67
2019-05-23T20:16:49.380Z,28.47
2019-05-23T20:19:18.565Z,29.77
2019-05-23T20:21:48.422Z,30.10
2019-05-23T20:24:18.082Z,28.70
2019-05-23T20:26:48.257Z,29.80
2019-05-23T20:29:18.182Z,27.70
2019-05-23T20:31:48.796Z,29.67
2019-05-23T20:34:18.559Z,28.60
2019-05-23T20:36:48.447Z,30.07
2019-05-23T20:39:18.694Z,27.27
2019-05-23T20:41:48.379Z,28.10
2019-05-23T20:44:18.323Z,28.93
2019-05-23T20:46:47.642Z,28.20
2019-05-23T20:49:17.618Z,28.60
2019-05-23T20:51:46.857Z,27.47
2019-05-23T20:54:16.434Z,29.43
2019-05-23T20:56:46.431Z,27.03
2019-05-23T20:59:16.328Z,28.17
2019-05-23T21:01:47.031Z,28.20
2019-05-23T21:04:17.075Z,26.37
2019-05-23T21:06:47.046Z,27.67
2019-05-23T21:09:16.780Z,27.50
2019-05-23T21:11:46.372Z,25.17
2019-05-23T21:14:16.726Z,24.70
2019-05-23T21:16:46.719Z,24.47
2019-05-23T21:19:15.998Z,25.10
2019-05-23T21:21:45.937Z,24.90
2019-05-23T21:24:16.140Z,25.73
2019-05-23T21:26:45.318Z,25.03
2019-05-23T21:29:15.567Z,26.30
2019-05-23T21:31:45.850Z,26.13
2019-05-23T21:34:15.512Z,25.67
2019-05-23T21:36:45.012Z,24.97
2019-05-23T21:39:14.611Z,25.53
2019-05-23T21:41:44.157Z,25.13
2019-05-23T21:44:13.430Z,24.43
2019-05-23T21:46:42.716Z,23.93
2019-05-23T21:49:12.107Z,25.53
2019-05-23T21:51:41.782Z,24.27
2019-05-23T21:54:11.088Z,25.43
2019-05-23T21:56:41.120Z,26.23
2019-05-23T21:59:10.418Z,26.13
2019-05-23T22:02:01.709Z,27.10
2019-05-23T22:04:49.136Z,26.97
2019-05-23T22:07:18.433Z,29.50
2019-05-23T22:09:47.655Z,29.17
2019-05-23T22:12:17.859Z,29.80
2019-05-23T22:14:47.785Z,28.10
2019-05-23T22:17:19.553Z,24.57
2019-05-23T22:19:49.292Z,24.03
2019-05-23T22:22:19.178Z,24.23
2019-05-23T22:24:49.142Z,21.40
2019-05-23T22:27:19.410Z,21.40
2019-05-23T22:29:49.400Z,20.07
2019-05-23T22:32:21.098Z,21.60
2019-05-23T22:35:03.572Z,18.70
2019-05-23T22:37:33.191Z,16.47
2019-05-23T22:40:02.884Z,18.63
2019-05-23T22:42:34.314Z,16.93
2019-05-23T22:45:05.260Z,17.80
2019-05-23T22:47:34.944Z,16.00
2019-05-23T22:50:04.607Z,17.33
2019-05-23T22:52:33.875Z,17.17
2019-05-23T22:55:03.074Z,17.33
2019-05-23T22:57:33.102Z,16.17
2019-05-23T23:00:02.923Z,15.20
2019-05-23T23:02:32.485Z,14.87
2019-05-23T23:05:02.099Z,15.77
2019-05-23T23:07:32.293Z,14.73
2019-05-23T23:10:01.920Z,16.53
2019-05-23T23:12:31.897Z,15.57
2019-05-23T23:15:01.880Z,15.83
2019-05-23T23:17:31.916Z,18.77
2019-05-23T23:20:02.293Z,19.10
2019-05-23T23:22:32.139Z,18.87
2019-05-23T23:25:01.472Z,19.97
2019-05-23T23:27:31.361Z,18.13
2019-05-23T23:30:00.620Z,18.30
2019-05-23T23:32:30.548Z,18.93
2019-05-23T23:35:00.481Z,17.13
2019-05-23T23:37:29.779Z,15.80
2019-05-23T23:39:59.799Z,16.47
2019-05-23T23:42:29.638Z,17.10
2019-05-23T23:45:16.369Z,16.80
2019-05-23T23:48:03.870Z,17.23
2019-05-23T23:50:51.448Z,16.17
2019-05-23T23:53:38.537Z,17.27
2019-05-23T23:56:25.719Z,15.53
2019-05-23T23:58:54.703Z,17.00
